Arrey, New Mexico
Current Conditions -  °F | °C
As of 9:53 PM on Thursday 30 Oct 2014 (Local Time) from KTCS Reporting Station
Clear Clear  
Wind Chill: 59°   Ceiling: Unl
Heat Index: 59°   Visibility: 10mi
Dew Point: 23°   Wind: 0mph
Humidity: 25%   Direction: NA
Pressure: 30.26"   Gusts: NA
Location:  32.79°N, 107.32°W
Report Text: KTCS 310353Z AUTO 00000KT 10SM CLR 15/M05 A3026 RMK AO2 SLP191 T01501050 TSNO
Loading
Personal Weather Stations






























Interactive Weather Map
Tropical Storm Tracking
New forecast layout! Learn more

10-Day Weather Forecast

Advertisements
Track Severe Weather on mobile